Time;durP1;ratioP1;P1;durP2;ratioP2;P2;SDS_P1;SDS_P2;PMS_P1;PMS_P2;Temp;Humidity;BMP_temperature;BMP_pressure;BME280_temperature;BME280_humidity;BME280_pressure;Samples;Min_cycle;Max_cycle;Signal;HPM_P1;HPM_P2
2022/11/17 00:00:26;;;;;;;4.22;2.22;;;4.80;99.90;;;;;;5042159;28;20099;-48
2022/11/17 00:02:52;;;;;;;;;;;4.70;99.90;;;;;;5026951;28;20556;-48
2022/11/17 00:05:19;;;;;;;2.63;1.40;;;4.70;99.90;;;;;;5033997;28;19964;-47
2022/11/17 00:07:47;;;;;;;3.47;1.88;;;4.70;99.90;;;;;;5042009;28;20452;-47
2022/11/17 00:10:15;;;;;;;5.35;1.90;;;4.60;99.90;;;;;;5039720;28;20048;-48
2022/11/17 00:15:28;;;;;;;5.38;1.63;;;4.70;99.90;;;;;;5036954;28;20091;-48
2022/11/17 00:23:45;;;;;;;4.70;2.30;;;4.70;99.90;;;;;;5044196;28;20103;-48
2022/11/17 00:26:17;;;;;;;2.92;1.58;;;4.70;99.90;;;;;;5048999;28;20091;-47
2022/11/17 00:28:44;;;;;;;5.07;2.10;;;4.70;99.90;;;;;;5036193;28;20075;-48
2022/11/17 00:34:06;;;;;;;2.95;2.08;;;4.70;99.90;;;;;;5042037;28;20464;-48
2022/11/17 00:36:45;;;;;;;4.18;2.10;;;4.70;99.90;;;;;;5045148;28;20044;-48
2022/11/17 00:39:14;;;;;;;4.55;2.20;;;4.60;99.90;;;;;;5027327;28;20461;-47
2022/11/17 00:41:41;;;;;;;3.85;1.98;;;4.60;99.90;;;;;;5046175;28;20440;-47
2022/11/17 00:44:08;;;;;;;4.05;2.30;;;4.60;99.90;;;;;;5043626;28;20049;-47
2022/11/17 00:46:36;;;;;;;4.13;2.20;;;4.60;99.90;;;;;;5036921;28;20088;-49
2022/11/17 00:49:04;;;;;;;3.65;2.00;;;4.50;99.90;;;;;;5046325;28;20092;-47
2022/11/17 00:51:31;;;;;;;4.25;2.35;;;4.50;99.90;;;;;;5046050;28;20099;-49
2022/11/17 00:53:59;;;;;;;4.03;2.35;;;4.60;99.90;;;;;;5041783;28;20457;-47
2022/11/17 00:56:26;;;;;;;5.22;2.60;;;4.60;99.90;;;;;;5039981;28;20524;-47
2022/11/17 00:58:53;;;;;;;4.28;2.58;;;4.60;99.90;;;;;;5036546;28;20095;-48
2022/11/17 01:01:20;;;;;;;4.90;2.85;;;4.60;99.90;;;;;;5037515;28;20068;-47
2022/11/17 01:03:47;;;;;;;5.07;2.90;;;4.70;99.90;;;;;;5025662;28;20042;-47
2022/11/17 01:06:16;;;;;;;6.28;2.75;;;4.70;99.90;;;;;;5035661;28;20053;-48
2022/11/17 01:08:43;;;;;;;6.07;2.88;;;4.70;99.90;;;;;;5036368;28;20049;-48
2022/11/17 01:11:12;;;;;;;4.82;2.90;;;4.70;99.90;;;;;;5027693;28;20073;-47
2022/11/17 01:13:40;;;;;;;3.90;2.53;;;4.80;99.90;;;;;;5031945;28;20041;-48
2022/11/17 01:16:13;;;;;;;4.38;2.50;;;4.80;99.90;;;;;;5027443;28;20072;-47
2022/11/17 01:18:41;;;;;;;4.75;2.40;;;4.80;99.90;;;;;;5032520;28;20076;-49
2022/11/17 01:21:11;;;;;;;5.22;2.20;;;4.80;99.90;;;;;;5031646;28;20536;-47
2022/11/17 01:23:39;;;;;;;7.10;2.83;;;4.80;99.90;;;;;;5019371;28;20049;-47
2022/11/17 01:26:09;;;;;;;5.10;2.85;;;4.90;99.90;;;;;;5030949;28;20065;-47
2022/11/17 01:28:37;;;;;;;7.68;3.22;;;5.00;99.90;;;;;;5032434;28;20068;-47
2022/11/17 01:31:13;;;;;;;6.18;2.63;;;5.10;99.90;;;;;;5026818;28;20049;-48
2022/11/17 01:33:40;;;;;;;4.38;2.65;;;5.10;99.90;;;;;;5032009;28;20049;-48
2022/11/17 01:36:14;;;;;;;3.78;2.30;;;5.10;99.90;;;;;;5032410;28;20409;-47
2022/11/17 01:38:41;;;;;;;3.33;2.30;;;5.00;99.90;;;;;;5026633;28;20033;-47
2022/11/17 01:41:24;;;;;;;2.65;1.85;;;4.90;99.90;;;;;;5032178;28;20045;-47
2022/11/17 01:44:18;;;;;;;3.67;2.00;;;4.90;99.90;;;;;;5031061;28;20076;-47
2022/11/17 01:46:45;;;;;;;2.35;1.60;;;4.90;99.90;;;;;;5028843;28;20817;-48
2022/11/17 01:49:23;;;;;;;6.65;2.15;;;4.80;99.90;;;;;;5017985;28;20073;-47
2022/11/17 01:51:59;;;;;;;4.55;2.60;;;4.80;99.90;;;;;;5031375;28;20477;-47
2022/11/17 01:54:29;;;;;;;4.25;2.38;;;4.80;99.90;;;;;;5031396;28;20080;-48
2022/11/17 01:57:01;;;;;;;4.88;2.40;;;4.80;99.90;;;;;;5028682;28;20095;-47
2022/11/17 01:59:53;;;;;;;3.55;2.13;;;4.80;99.90;;;;;;5026506;28;20069;-48
2022/11/17 02:02:20;;;;;;;3.88;2.13;;;4.80;99.90;;;;;;5021864;28;20197;-48
2022/11/17 02:04:58;;;;;;;2.45;1.42;;;4.80;99.90;;;;;;5028006;28;20104;-47
2022/11/17 02:07:29;;;;;;;6.60;2.05;;;4.80;99.90;;;;;;5030988;28;20069;-47
2022/11/17 02:09:58;;;;;;;4.72;2.80;;;4.80;99.90;;;;;;5017115;28;20046;-48
2022/11/17 02:12:26;;;;;;;4.45;2.08;;;4.90;99.90;;;;;;5026900;28;20068;-48
2022/11/17 02:14:53;;;;;;;3.03;1.88;;;5.00;99.90;;;;;;5048031;28;20040;-47
2022/11/17 02:17:22;;;;;;;;;;;4.90;99.90;;;;;;5028006;28;20037;-47
2022/11/17 02:20:21;;;;;;;3.40;2.10;;;4.90;99.90;;;;;;5031437;28;20060;-47
2022/11/17 02:22:59;;;;;;;2.47;1.80;;;5.00;99.90;;;;;;5031272;28;20135;-47
2022/11/17 02:25:35;;;;;;;5.75;2.63;;;5.00;99.90;;;;;;5030569;28;20068;-47
2022/11/17 02:28:19;;;;;;;3.10;2.30;;;5.00;99.90;;;;;;5031612;28;20073;-49
2022/11/17 02:31:09;;;;;;;4.32;1.98;;;5.10;99.90;;;;;;5026209;28;20065;-48
2022/11/17 02:34:20;;;;;;;2.78;1.90;;;5.10;99.90;;;;;;5030486;28;20076;-47
2022/11/17 02:36:57;;;;;;;3.17;1.75;;;5.00;99.90;;;;;;5031860;28;20538;-47
2022/11/17 02:39:39;;;;;;;3.33;2.15;;;5.10;99.90;;;;;;5027046;28;20042;-47
2022/11/17 02:45:23;;;;;;;4.97;2.90;;;5.20;99.90;;;;;;5025978;28;20045;-48
2022/11/17 02:47:53;;;;;;;4.45;2.53;;;5.20;99.90;;;;;;5031406;28;20065;-48
2022/11/17 02:50:22;;;;;;;2.90;1.60;;;5.30;99.90;;;;;;5013557;28;20079;-47
2022/11/17 02:52:54;;;;;;;3.55;1.98;;;5.30;99.90;;;;;;5031014;28;20087;-47
2022/11/17 02:55:21;;;;;;;3.72;2.10;;;5.30;99.90;;;;;;5028201;28;20033;-47
2022/11/17 02:57:48;;;;;;;3.95;1.40;;;5.30;99.90;;;;;;5026569;28;20084;-48
2022/11/17 03:00:17;;;;;;;4.90;2.20;;;5.30;99.90;;;;;;5030568;28;20096;-47
2022/11/17 03:02:53;;;;;;;5.47;2.20;;;5.30;99.90;;;;;;5012817;28;20470;-48
2022/11/17 03:05:41;;;;;;;5.28;2.97;;;5.30;99.90;;;;;;5031391;28;20081;-47
2022/11/17 03:08:16;;;;;;;6.80;4.00;;;5.40;99.90;;;;;;5029561;28;20168;-49
2022/11/17 03:11:10;;;;;;;6.45;3.22;;;5.50;99.90;;;;;;5031343;28;20069;-48
2022/11/17 03:13:38;;;;;;;5.43;3.38;;;5.50;99.90;;;;;;5040273;23;20028;-51
2022/11/17 03:16:14;;;;;;;4.75;3.00;;;5.50;99.90;;;;;;5070002;28;20055;-47
2022/11/17 03:18:52;;;;;;;5.45;3.15;;;5.60;99.90;;;;;;5069941;28;20120;-47
2022/11/17 03:21:33;;;;;;;;;;;5.60;99.90;;;;;;5071471;28;20060;-49
2022/11/17 03:24:19;;;;;;;5.97;3.08;;;5.60;99.90;;;;;;5062126;28;19963;-47
2022/11/17 03:26:52;;;;;;;5.43;3.03;;;5.60;99.90;;;;;;5046787;28;20469;-49
2022/11/17 03:29:21;;;;;;;5.63;3.10;;;5.70;99.90;;;;;;5045687;28;20076;-49
2022/11/17 03:31:51;;;;;;;8.27;3.45;;;5.70;99.90;;;;;;5046705;28;20124;-47
2022/11/17 03:34:22;;;;;;;7.22;3.03;;;5.70;99.90;;;;;;5049653;28;20124;-47
2022/11/17 03:36:54;;;;;;;6.50;3.00;;;5.70;99.90;;;;;;5050248;28;20588;-48
2022/11/17 03:39:28;;;;;;;6.45;3.33;;;5.70;99.90;;;;;;5045952;28;20041;-48
2022/11/17 03:42:04;;;;;;;4.75;3.10;;;5.70;99.90;;;;;;5050370;28;20048;-47
2022/11/17 03:44:34;;;;;;;8.82;3.47;;;5.80;99.90;;;;;;5053735;28;20044;-47
2022/11/17 03:47:04;;;;;;;6.15;3.58;;;5.70;99.90;;;;;;5050178;28;20095;-49
2022/11/17 03:49:48;;;;;;;5.25;3.08;;;5.70;99.90;;;;;;5054839;28;20064;-50
2022/11/17 03:52:16;;;;;;;6.15;3.30;;;5.70;99.90;;;;;;5053573;28;20051;-48
2022/11/17 03:54:42;;;;;;;5.90;3.08;;;5.60;99.90;;;;;;5052892;28;20080;-47
2022/11/17 03:57:47;;;;;;;6.68;3.03;;;5.50;99.90;;;;;;5054211;28;20076;-47
2022/11/17 04:00:16;;;;;;;6.47;3.45;;;5.50;99.90;;;;;;5053117;28;20071;-47
2022/11/17 04:02:46;;;;;;;6.07;3.80;;;5.50;99.90;;;;;;5052934;28;20497;-48
2022/11/17 04:05:16;;;;;;;5.43;3.15;;;5.50;99.90;;;;;;5054330;28;20099;-47
2022/11/17 04:07:45;;;;;;;6.45;3.50;;;5.50;99.90;;;;;;5049070;28;20095;-48
2022/11/17 04:10:14;;;;;;;9.07;4.13;;;5.40;99.90;;;;;;5053579;28;20563;-48
2022/11/17 04:18:12;;;;;;;5.68;3.47;;;5.40;99.90;;;;;;5055108;28;20822;-47
2022/11/17 04:20:40;;;;;;;;;;;5.40;99.90;;;;;;5059707;28;20554;-49
2022/11/17 04:23:12;;;;;;;7.93;3.10;;;5.50;99.90;;;;;;5050079;28;20515;-49
2022/11/17 04:28:35;;;;;;;6.63;3.78;;;5.50;99.90;;;;;;5047188;28;20136;-48
2022/11/17 04:31:13;;;;;;;5.28;3.35;;;5.50;99.90;;;;;;5048073;28;20036;-50
2022/11/17 04:33:44;;;;;;;;;;;5.50;99.90;;;;;;5051335;28;20036;-50
2022/11/17 04:36:12;;;;;;;7.20;3.65;;;5.50;99.90;;;;;;5053229;28;20395;-51
2022/11/17 04:38:43;;;;;;;5.57;3.17;;;5.50;99.90;;;;;;5046312;28;20079;-47
2022/11/17 04:43:58;;;;;;;8.07;3.55;;;5.60;99.90;;;;;;5032735;28;20497;-49
2022/11/17 04:46:25;;;;;;;4.75;3.20;;;5.60;99.90;;;;;;5052810;28;20067;-48
2022/11/17 04:48:53;;;;;;;;;;;5.60;99.90;;;;;;5051802;28;20457;-47
2022/11/17 04:51:20;;;;;;;5.60;3.20;;;5.60;99.90;;;;;;5051588;28;19925;-47
2022/11/17 04:53:47;;;;;;;6.95;3.35;;;5.60;99.90;;;;;;5048569;28;20065;-49
2022/11/17 04:56:15;;;;;;;6.90;3.33;;;5.70;99.90;;;;;;5052950;28;20401;-48
2022/11/17 04:58:42;;;;;;;8.73;3.60;;;5.70;99.90;;;;;;5049193;28;20033;-48
2022/11/17 05:01:11;;;;;;;6.40;3.17;;;5.70;99.90;;;;;;5047355;28;20076;-47
2022/11/17 05:03:59;;;;;;;6.40;3.05;;;5.70;99.90;;;;;;5051204;28;20065;-48
2022/11/17 05:06:40;;;;;;;6.07;3.17;;;5.70;99.90;;;;;;5051890;28;20673;-48
2022/11/17 05:09:12;;;;;;;6.88;3.05;;;5.60;99.90;;;;;;5052854;28;20045;-47
2022/11/17 05:14:27;;;;;;;3.45;2.50;;;5.60;99.90;;;;;;5032395;28;20099;-48
2022/11/17 05:17:08;;;;;;;4.85;2.58;;;5.60;99.90;;;;;;5051725;28;20041;-48
2022/11/17 05:19:40;;;;;;;5.60;2.70;;;5.50;99.90;;;;;;5043366;28;20071;-49
2022/11/17 05:24:55;;;;;;;4.38;2.45;;;5.50;99.90;;;;;;5042622;28;20041;-48
2022/11/17 05:27:22;;;;;;;;;;;5.40;99.90;;;;;;5049109;28;20094;-50
2022/11/17 05:29:49;;;;;;;5.18;2.83;;;5.40;99.90;;;;;;5042094;28;19964;-47
2022/11/17 05:32:16;;;;;;;3.80;2.50;;;5.40;99.90;;;;;;5035902;28;20091;-47
2022/11/17 05:34:42;;;;;;;4.88;2.45;;;5.30;99.90;;;;;;5046287;28;20040;-47
2022/11/17 05:37:09;;;;;;;4.65;2.17;;;5.30;99.90;;;;;;5050562;28;20250;-47
2022/11/17 05:39:36;;;;;;;11.00;4.82;;;5.30;99.90;;;;;;5049638;28;20041;-48
2022/11/17 05:42:03;;;;;;;7.95;4.80;;;5.20;99.90;;;;;;5050487;28;20553;-48
2022/11/17 05:44:30;;;;;;;6.28;3.33;;;5.20;99.90;;;;;;5043706;28;20064;-49
2022/11/17 05:46:56;;;;;;;6.75;3.63;;;5.20;99.90;;;;;;5042842;28;20502;-47
2022/11/17 05:49:23;;;;;;;7.90;4.15;;;5.20;99.90;;;;;;5035099;28;20068;-47
2022/11/17 05:51:50;;;;;;;6.43;3.08;;;5.20;99.90;;;;;;5051150;28;20520;-49
2022/11/17 05:54:19;;;;;;;9.23;4.30;;;5.10;99.90;;;;;;5053581;28;20132;-49
2022/11/17 05:56:51;;;;;;;9.85;4.78;;;5.00;99.90;;;;;;5048603;28;20049;-47
2022/11/17 05:59:43;;;;;;;8.63;5.18;;;5.00;99.90;;;;;;5051334;28;20072;-47
2022/11/17 06:02:18;;;;;;;8.95;4.88;;;5.00;99.90;;;;;;5048662;28;20079;-47
2022/11/17 06:04:47;;;;;;;9.85;4.32;;;5.00;99.90;;;;;;5047739;28;20045;-47
2022/11/17 06:07:16;;;;;;;8.48;3.88;;;5.00;99.90;;;;;;5045305;28;20061;-47
2022/11/17 06:09:44;;;;;;;7.13;4.05;;;5.00;99.90;;;;;;5044890;28;20037;-47
2022/11/17 06:12:11;;;;;;;9.35;5.18;;;5.10;99.90;;;;;;5048467;28;20033;-46
2022/11/17 06:14:38;;;;;;;9.18;4.55;;;5.10;99.90;;;;;;5052515;28;20071;-47
2022/11/17 06:17:07;;;;;;;;;;;5.20;99.90;;;;;;5059290;28;20044;-47
2022/11/17 06:19:42;;;;;;;10.27;4.88;;;5.20;99.90;;;;;;5046374;28;20012;-47
2022/11/17 06:22:09;;;;;;;8.07;3.45;;;5.20;99.90;;;;;;5050741;28;20123;-47
2022/11/17 06:24:41;;;;;;;5.82;3.45;;;5.30;99.90;;;;;;5049579;28;20059;-48
2022/11/17 06:27:10;;;;;;;7.28;3.95;;;5.40;99.90;;;;;;5051180;28;20383;-48
2022/11/17 06:29:37;;;;;;;9.75;4.90;;;5.50;99.90;;;;;;5047419;28;20079;-47
2022/11/17 06:32:14;;;;;;;8.77;4.80;;;5.50;99.90;;;;;;5049780;28;20128;-50
2022/11/17 06:34:43;;;;;;;15.15;5.63;;;5.50;99.90;;;;;;5050337;28;20551;-49
2022/11/17 06:37:10;;;;;;;9.70;5.45;;;5.40;99.90;;;;;;5050271;28;20052;-49
2022/11/17 06:39:37;;;;;;;9.65;4.88;;;5.40;99.90;;;;;;5046324;28;20059;-48
2022/11/17 06:42:04;;;;;;;8.88;4.10;;;5.50;99.90;;;;;;5050762;28;20037;-48
2022/11/17 06:44:30;;;;;;;7.65;3.42;;;5.60;99.90;;;;;;5050915;28;20116;-48
2022/11/17 06:46:57;;;;;;;8.77;3.70;;;5.70;99.90;;;;;;5049316;28;20051;-51
2022/11/17 06:49:24;;;;;;;6.35;3.55;;;5.80;99.90;;;;;;5037314;28;20053;-47
2022/11/17 06:51:51;;;;;;;7.65;3.15;;;5.90;99.90;;;;;;5030391;28;20345;-48
2022/11/17 06:54:17;;;;;;;4.88;3.22;;;5.90;99.90;;;;;;5030569;28;20076;-48
2022/11/17 06:56:44;;;;;;;7.18;3.15;;;6.00;99.90;;;;;;5046560;28;20062;-48
2022/11/17 06:59:11;;;;;;;4.82;2.95;;;6.00;99.90;;;;;;5043860;28;20052;-47
2022/11/17 07:01:38;;;;;;;5.18;3.20;;;6.00;99.90;;;;;;5043646;28;20296;-49
2022/11/17 07:04:05;;;;;;;4.07;2.50;;;6.00;99.90;;;;;;5049087;28;20128;-46
2022/11/17 07:06:35;;;;;;;3.38;2.00;;;6.10;99.90;;;;;;5044915;28;20095;-48
2022/11/17 07:09:03;;;;;;;5.95;2.30;;;6.10;99.90;;;;;;5048949;28;20569;-47
2022/11/17 07:11:29;;;;;;;4.05;2.47;;;6.10;99.90;;;;;;5048884;28;20453;-48
2022/11/17 07:13:57;;;;;;;3.30;2.13;;;6.10;99.90;;;;;;5049635;28;20071;-48
2022/11/17 07:16:23;;;;;;;;;;;6.10;99.90;;;;;;5047446;28;20422;-47
2022/11/17 07:18:52;;;;;;;7.65;2.42;;;6.20;99.90;;;;;;5053204;28;20027;-48
2022/11/17 07:21:18;;;;;;;6.25;2.63;;;6.30;99.90;;;;;;5054471;28;20115;-49
2022/11/17 07:23:45;;;;;;;7.10;4.03;;;6.30;99.90;;;;;;5054804;28;20493;-48
2022/11/17 07:26:13;;;;;;;8.25;4.13;;;6.30;99.90;;;;;;5046629;28;20041;-48
2022/11/17 07:28:40;;;;;;;9.52;4.05;;;6.20;99.90;;;;;;5040317;28;20057;-48
2022/11/17 07:31:07;;;;;;;6.75;3.20;;;6.00;99.90;;;;;;5035039;28;20120;-47
2022/11/17 07:33:35;;;;;;;6.85;3.28;;;6.00;99.90;;;;;;5054060;28;20087;-49
2022/11/17 07:36:03;;;;;;;;;;;6.00;99.90;;;;;;5053789;28;20040;-48
2022/11/17 07:38:31;;;;;;;5.47;2.72;;;6.20;99.90;;;;;;5052501;28;20452;-48
2022/11/17 07:40:59;;;;;;;6.32;3.45;;;6.10;99.90;;;;;;5051230;28;20412;-50
2022/11/17 07:43:26;;;;;;;;;;;6.20;99.90;;;;;;5034842;28;20049;-47
2022/11/17 07:45:53;;;;;;;35.22;12.25;;;6.20;99.90;;;;;;5033658;28;19960;-51
2022/11/17 07:48:20;;;;;;;17.00;8.57;;;6.30;99.90;;;;;;5054424;28;20075;-47
2022/11/17 07:50:47;;;;;;;;;;;6.30;99.90;;;;;;5053643;28;20049;-47
2022/11/17 07:53:14;;;;;;;8.48;5.53;;;6.20;99.90;;;;;;5054028;28;20388;-48
2022/11/17 07:55:41;;;;;;;8.95;5.18;;;6.30;99.90;;;;;;5048819;28;20064;-49
2022/11/17 07:58:08;;;;;;;8.55;4.80;;;6.30;99.90;;;;;;5035741;28;20073;-48
2022/11/17 08:00:35;;;;;;;10.25;4.80;;;6.40;99.90;;;;;;5033723;28;20453;-48
2022/11/17 08:03:03;;;;;;;8.82;4.90;;;6.40;99.90;;;;;;5051338;28;20048;-47
2022/11/17 08:05:34;;;;;;;6.70;4.00;;;6.50;99.90;;;;;;5054004;28;20081;-48
2022/11/17 08:08:09;;;;;;;5.43;3.67;;;6.60;99.90;;;;;;5052589;28;20045;-49
2022/11/17 08:10:35;;;;;;;7.55;3.50;;;6.60;99.90;;;;;;5053474;28;20045;-47
2022/11/17 08:13:03;;;;;;;6.95;4.25;;;6.70;99.90;;;;;;5053516;28;20049;-48
2022/11/17 08:15:30;;;;;;;4.88;3.40;;;6.80;99.90;;;;;;5049490;28;20072;-47
2022/11/17 08:17:58;;;;;;;12.07;5.10;;;6.90;99.90;;;;;;5053829;28;20071;-47
2022/11/17 08:20:27;;;;;;;11.10;4.47;;;7.00;99.90;;;;;;5053863;28;20044;-48
2022/11/17 08:22:55;;;;;;;10.60;4.50;;;7.00;99.90;;;;;;5053533;28;20073;-48
2022/11/17 08:25:24;;;;;;;7.68;5.10;;;7.00;99.90;;;;;;5048130;28;20068;-47
2022/11/17 08:27:56;;;;;;;5.80;4.15;;;7.00;99.90;;;;;;5037254;28;20465;-47
2022/11/17 08:30:24;;;;;;;10.38;5.32;;;7.00;99.90;;;;;;5045876;28;20045;-47
2022/11/17 08:32:52;;;;;;;11.98;6.18;;;7.10;99.90;;;;;;5052523;28;20126;-47
2022/11/17 08:35:22;;;;;;;12.55;6.47;;;7.10;99.90;;;;;;5053607;28;20037;-48
2022/11/17 08:37:48;;;;;;;12.93;5.35;;;7.10;99.90;;;;;;5042921;28;20464;-47
2022/11/17 08:40:17;;;;;;;5.78;2.80;;;7.10;99.90;;;;;;5053016;28;20108;-48
2022/11/17 08:42:44;;;;;;;12.00;5.70;;;7.10;99.90;;;;;;5052237;28;20068;-48
2022/11/17 08:45:11;;;;;;;9.90;4.85;;;7.20;99.90;;;;;;5044966;28;20409;-48
2022/11/17 08:47:38;;;;;;;10.23;6.03;;;7.20;99.90;;;;;;5053170;28;20037;-48
2022/11/17 08:50:06;;;;;;;5.95;3.80;;;7.20;99.90;;;;;;5053652;28;20124;-47
2022/11/17 08:52:32;;;;;;;6.43;3.72;;;7.30;99.90;;;;;;5051386;28;20045;-48
2022/11/17 08:54:59;;;;;;;6.68;4.25;;;7.30;99.90;;;;;;5041810;28;20065;-50
2022/11/17 08:57:28;;;;;;;6.43;3.75;;;7.30;99.90;;;;;;5052968;28;20048;-47
2022/11/17 08:59:55;;;;;;;5.75;4.07;;;7.30;99.90;;;;;;5052615;28;20040;-48
2022/11/17 09:02:22;;;;;;;15.35;5.05;;;7.20;99.90;;;;;;5046429;28;20458;-48
2022/11/17 09:04:49;;;;;;;14.55;5.40;;;7.20;99.90;;;;;;5052568;28;20111;-50
2022/11/17 09:07:16;;;;;;;10.35;4.88;;;7.20;99.90;;;;;;5050884;28;20124;-47
2022/11/17 09:09:45;;;;;;;11.48;4.97;;;7.30;99.90;;;;;;5045657;28;20048;-47
2022/11/17 09:12:11;;;;;;;7.40;4.25;;;7.20;99.90;;;;;;5031629;28;20076;-47
2022/11/17 09:15:26;;;;;;;15.50;6.68;;;7.30;99.90;;;;;;5063530;23;20048;-52
2022/11/17 09:18:14;;;;;;;7.57;4.63;;;7.30;99.90;;;;;;5065005;28;20063;-53
2022/11/17 09:20:42;;;;;;;5.75;3.25;;;7.50;99.90;;;;;;5084329;28;20120;-52
2022/11/17 09:23:11;;;;;;;5.75;3.60;;;7.60;99.90;;;;;;5077358;28;20313;-51
2022/11/17 09:25:38;;;;;;;7.65;3.85;;;7.80;99.90;;;;;;5060125;28;20554;-51
2022/11/17 09:28:05;;;;;;;5.05;2.88;;;7.90;99.90;;;;;;5092787;28;20048;-53
2022/11/17 09:30:32;;;;;;;5.25;3.25;;;8.00;99.90;;;;;;5088012;28;20045;-50
2022/11/17 09:32:59;;;;;;;4.20;2.72;;;8.10;99.90;;;;;;5092083;28;20515;-50
2022/11/17 09:35:25;;;;;;;6.22;2.70;;;8.10;99.90;;;;;;5091646;28;20083;-50
2022/11/17 09:37:57;;;;;;;4.32;2.25;;;8.20;99.90;;;;;;5092754;28;20432;-52
2022/11/17 09:40:24;;;;;;;3.78;2.05;;;8.30;99.90;;;;;;5090349;28;20064;-51
2022/11/17 09:42:51;;;;;;;3.28;1.67;;;8.40;99.90;;;;;;5092003;28;20040;-53
2022/11/17 09:45:30;;;;;;;5.13;2.67;;;8.70;99.90;;;;;;5088207;28;20497;-53
2022/11/17 09:48:32;;;;;;;3.78;2.40;;;8.90;99.90;;;;;;5092404;28;20094;-51
2022/11/17 09:51:12;;;;;;;3.88;2.58;;;9.00;99.90;;;;;;5092049;28;20040;-51
2022/11/17 09:54:17;;;;;;;4.07;2.78;;;9.30;99.90;;;;;;5089571;28;20044;-51
2022/11/17 09:56:46;;;;;;;4.68;2.80;;;9.40;99.90;;;;;;5009842;28;20065;-50
2022/11/17 09:59:16;;;;;;;5.35;3.17;;;9.50;99.90;;;;;;5002951;28;20739;-49
2022/11/17 10:01:43;;;;;;;4.78;2.85;;;9.50;99.90;;;;;;5048034;28;20075;-51
2022/11/17 10:04:15;;;;;;;4.63;2.80;;;9.50;99.90;;;;;;5090875;28;20051;-52
2022/11/17 10:06:45;;;;;;;4.45;2.53;;;9.30;99.90;;;;;;5091939;28;20066;-51
2022/11/17 10:09:40;;;;;;;5.15;3.78;;;9.30;99.90;;;;;;5082843;28;20090;-49
2022/11/17 10:12:19;;;;;;;5.40;3.22;;;9.20;99.90;;;;;;5091275;28;20075;-53
2022/11/17 10:14:50;;;;;;;4.10;2.60;;;9.30;99.90;;;;;;5074986;28;20097;-53
2022/11/17 10:17:17;;;;;;;4.50;3.35;;;9.30;99.90;;;;;;5079327;28;20051;-53
2022/11/17 10:19:44;;;;;;;4.80;2.95;;;9.30;99.90;;;;;;5085647;28;20101;-50
2022/11/17 10:22:23;;;;;;;5.25;3.05;;;9.50;99.90;;;;;;5081649;28;20111;-53
2022/11/17 10:24:53;;;;;;;7.43;3.35;;;9.60;99.90;;;;;;5091671;28;20048;-53
2022/11/17 10:27:32;;;;;;;7.95;3.97;;;9.70;99.90;;;;;;5091523;28;20165;-51
2022/11/17 10:30:05;;;;;;;6.90;3.78;;;9.90;99.90;;;;;;5089766;28;20043;-54
2022/11/17 10:32:45;;;;;;;7.10;4.22;;;10.00;99.90;;;;;;5091234;28;20456;-49
2022/11/17 10:35:25;;;;;;;6.90;3.38;;;10.10;99.90;;;;;;5081736;28;20044;-49
2022/11/17 10:38:11;;;;;;;9.05;4.35;;;10.10;99.90;;;;;;5091575;28;20071;-51
2022/11/17 10:40:38;;;;;;;4.35;3.10;;;10.20;99.90;;;;;;5090907;28;20086;-49
2022/11/17 10:43:11;;;;;;;4.80;3.25;;;10.10;99.90;;;;;;5081022;28;20093;-50
2022/11/17 10:45:49;;;;;;;4.18;3.00;;;10.00;99.90;;;;;;5091460;28;20078;-53
2022/11/17 10:48:32;;;;;;;6.13;3.00;;;9.90;99.90;;;;;;5083499;28;20101;-53
2022/11/17 10:51:02;;;;;;;4.65;3.42;;;9.80;99.90;;;;;;5082100;28;20041;-54
2022/11/17 10:53:41;;;;;;;5.97;3.38;;;9.70;99.90;;;;;;5090327;28;20421;-50
2022/11/17 10:56:13;;;;;;;5.20;2.90;;;9.60;99.90;;;;;;5090424;28;20048;-51
2022/11/17 10:59:10;;;;;;;5.72;3.00;;;9.70;99.90;;;;;;5090978;28;20078;-51
2022/11/17 11:01:40;;;;;;;5.88;4.25;;;9.70;99.90;;;;;;5085091;28;20065;-52
2022/11/17 11:04:25;;;;;;;5.68;3.05;;;9.70;99.90;;;;;;5090992;28;20044;-54
2022/11/17 11:07:09;;;;;;;4.85;2.80;;;9.80;99.90;;;;;;5081878;28;20079;-53
2022/11/17 11:09:49;;;;;;;5.40;2.50;;;9.90;99.90;;;;;;5090941;28;20044;-51
2022/11/17 11:12:28;;;;;;;4.32;2.75;;;9.80;99.90;;;;;;5082177;28;20044;-50
2022/11/17 11:14:59;;;;;;;3.30;2.45;;;9.90;99.90;;;;;;5089846;28;20067;-51
2022/11/17 11:17:28;;;;;;;2.53;2.30;;;9.90;99.90;;;;;;5091147;28;20446;-51
2022/11/17 11:19:55;;;;;;;5.28;2.47;;;10.10;99.90;;;;;;5087757;28;20040;-50
2022/11/17 11:22:43;;;;;;;3.42;2.38;;;10.30;99.90;;;;;;5091363;28;20097;-51
2022/11/17 11:25:36;;;;;;;7.45;3.95;;;10.40;99.90;;;;;;5088211;28;20052;-53
2022/11/17 11:28:21;;;;;;;4.25;2.60;;;10.50;99.90;;;;;;5070760;28;20060;-51
2022/11/17 11:31:00;;;;;;;4.50;2.90;;;10.50;99.90;;;;;;5083345;28;20508;-49
2022/11/17 11:33:36;;;;;;;7.75;4.60;;;10.40;99.90;;;;;;5082840;28;20075;-49
2022/11/17 11:36:29;;;;;;;5.78;3.28;;;10.20;99.90;;;;;;5071471;28;20093;-53
2022/11/17 11:39:05;;;;;;;7.10;3.47;;;10.10;99.90;;;;;;5090638;28;20139;-50
2022/11/17 11:42:09;;;;;;;6.60;3.22;;;10.10;99.90;;;;;;5084251;28;20071;-53
2022/11/17 11:44:53;;;;;;;5.18;2.90;;;10.20;99.90;;;;;;5090729;28;20087;-53
2022/11/17 11:47:49;;;;;;;5.68;3.38;;;10.10;99.90;;;;;;5083510;28;20492;-53
2022/11/17 11:50:21;;;;;;;5.40;3.28;;;10.10;99.90;;;;;;5090472;28;20044;-53
2022/11/17 11:52:53;;;;;;;6.60;3.60;;;10.10;99.90;;;;;;5089813;28;20079;-49
2022/11/17 11:55:33;;;;;;;5.65;3.42;;;10.00;99.90;;;;;;5090446;28;20464;-50
2022/11/17 11:58:03;;;;;;;6.53;3.30;;;10.00;99.90;;;;;;5088815;28;20047;-51
2022/11/17 12:00:31;;;;;;;8.65;4.50;;;10.00;99.90;;;;;;5090734;28;20512;-53
2022/11/17 12:03:11;;;;;;;3.97;2.60;;;10.00;99.90;;;;;;5082922;28;20556;-53
2022/11/17 12:06:38;;;;;;;4.63;2.08;;;9.90;99.90;;;;;;5093898;28;20036;-50
2022/11/17 12:09:05;;;;;;;6.68;2.55;;;9.90;99.90;;;;;;5094576;28;20127;-51
2022/11/17 12:14:18;;;;;;;6.25;2.42;;;9.90;99.90;;;;;;5093976;28;20385;-53
2022/11/17 12:16:47;;;;;;;3.35;2.58;;;10.00;99.90;;;;;;5069722;28;20067;-50
2022/11/17 12:19:48;;;;;;;6.03;3.15;;;10.00;99.90;;;;;;5094057;28;20068;-54
2022/11/17 12:22:33;;;;;;;5.25;2.92;;;10.10;99.90;;;;;;5093209;28;20079;-50
2022/11/17 12:25:28;;;;;;;7.85;2.92;;;10.20;99.90;;;;;;5087165;28;20641;-53
2022/11/17 12:27:54;;;;;;;2.70;2.13;;;10.10;99.90;;;;;;5093977;28;20089;-53
2022/11/17 12:30:33;;;;;;;5.18;2.55;;;10.10;99.90;;;;;;5093809;28;20087;-50
2022/11/17 12:33:04;;;;;;;4.75;2.63;;;10.00;99.90;;;;;;5087545;28;20082;-52
2022/11/17 12:35:32;;;;;;;4.55;2.50;;;10.00;99.90;;;;;;5093538;28;20036;-50
2022/11/17 12:38:14;;;;;;;6.03;2.35;;;10.00;99.90;;;;;;5092767;28;20123;-50
2022/11/17 12:40:51;;;;;;;3.22;2.53;;;9.90;99.90;;;;;;5073330;28;20105;-53
2022/11/17 12:43:19;;;;;;;6.07;2.58;;;10.00;99.90;;;;;;5093501;28;20075;-52
2022/11/17 12:45:58;;;;;;;7.82;2.58;;;9.90;99.90;;;;;;5092914;28;20094;-51
2022/11/17 12:48:29;;;;;;;5.95;2.38;;;9.90;99.90;;;;;;5089517;28;20062;-53
2022/11/17 12:51:12;;;;;;;6.57;2.88;;;9.90;99.90;;;;;;5090803;28;20055;-52
2022/11/17 12:53:54;;;;;;;6.85;2.70;;;9.90;99.90;;;;;;5092867;28;20075;-50
2022/11/17 12:56:48;;;;;;;4.75;2.72;;;9.80;99.90;;;;;;5089734;28;20028;-52
2022/11/17 12:59:41;;;;;;;3.95;2.25;;;9.80;99.90;;;;;;5085011;28;20543;-52
2022/11/17 13:02:36;;;;;;;5.45;2.38;;;9.80;99.90;;;;;;5092646;28;20040;-51
2022/11/17 13:05:14;;;;;;;3.60;2.30;;;9.90;99.90;;;;;;5092976;28;20504;-51
2022/11/17 13:07:41;;;;;;;4.85;2.67;;;9.90;99.90;;;;;;5091329;28;20094;-49
2022/11/17 13:10:29;;;;;;;5.03;3.03;;;9.90;99.90;;;;;;5092911;28;20123;-53
2022/11/17 13:13:12;;;;;;;2.67;2.30;;;9.90;99.90;;;;;;5092385;28;20423;-50
2022/11/17 13:15:40;;;;;;;3.10;2.22;;;10.00;99.90;;;;;;5089877;28;20044;-51
2022/11/17 13:18:10;;;;;;;4.13;2.67;;;10.00;99.90;;;;;;5093011;28;20036;-49
2022/11/17 13:20:38;;;;;;;10.27;3.88;;;10.00;99.90;;;;;;5092569;28;20063;-51
2022/11/17 13:23:22;;;;;;;7.65;3.97;;;10.00;99.90;;;;;;5084222;28;20060;-51
2022/11/17 13:25:49;;;;;;;5.43;3.78;;;10.10;99.90;;;;;;5092781;28;20117;-52
2022/11/17 13:28:27;;;;;;;;;;;10.20;99.90;;;;;;5093519;28;20074;-51
2022/11/17 13:30:54;;;;;;;6.13;3.20;;;10.10;99.90;;;;;;5090968;28;19951;-52
2022/11/17 13:33:23;;;;;;;7.07;3.53;;;10.20;99.90;;;;;;5092448;28;20040;-49
2022/11/17 13:36:26;;;;;;;5.18;2.90;;;10.20;99.90;;;;;;5083405;28;20078;-52
2022/11/17 13:38:56;;;;;;;6.90;3.75;;;10.30;99.90;;;;;;5091849;28;20087;-53
2022/11/17 13:41:24;;;;;;;6.07;4.10;;;10.20;99.90;;;;;;5091513;28;20132;-52
2022/11/17 13:43:53;;;;;;;5.93;3.33;;;10.20;99.90;;;;;;5086616;28;20036;-52
2022/11/17 13:46:20;;;;;;;6.55;3.30;;;10.20;99.90;;;;;;5084330;28;20101;-52
2022/11/17 13:48:48;;;;;;;4.07;2.83;;;10.20;99.90;;;;;;5092472;28;20055;-53
2022/11/17 13:51:37;;;;;;;5.35;3.22;;;10.10;99.90;;;;;;5082826;28;20478;-50
2022/11/17 13:54:11;;;;;;;4.88;2.88;;;10.20;99.90;;;;;;5092158;28;20051;-50
2022/11/17 13:57:06;;;;;;;7.63;2.88;;;10.20;99.90;;;;;;5092388;28;20040;-50
2022/11/17 13:59:37;;;;;;;4.78;2.85;;;10.20;99.90;;;;;;5084000;28;20773;-53
2022/11/17 14:02:18;;;;;;;6.78;4.32;;;10.30;99.90;;;;;;5089935;28;20040;-53